West Olive, MI (49460)

11:32 PM EDT on September 29, 2016 (GMT -0400)
Stanton St. & 96th Ave. | | Change Station

Elev 636 ft 42.94 °N, 86.03 °W | Updated 28 seconds ago

Overcast
Overcast
58.0 °F
Feels Like 58.0 °F
N
0.0
Wind Variable Wind from SW

Today
High -- | Low -- °F
--% Chance of Precip.
Yesterday
High -- | Low -- °F
Precip. -- in
Pressure 30.22 in
Visibility 10.0 miles
Clouds Overcast 1300 ft
Dew Point 56 °F
Humidity 93%
Rainfall 0.02 in
Snow Depth Not available.
7:40 AM 7:28 PM
Waning Crescent, 1% visible
SPECI KBIV 300326Z AUTO 04005KT 10SM OVC013 15/13 A3022 RMK AO2 T01500133
Pressure 30.22 in
Visibility 10.0 miles
Clouds Overcast 1300 ft
Dew Point 56 °F
Humidity 93%
Rainfall 0.02 in
Snow Depth Not available.
7:40 AM 7:28 PM
Waning Crescent, 1% visible
SPECI KBIV 300326Z AUTO 04005KT 10SM OVC013 15/13 A3022 RMK AO2 T01500133

10-Day Weather Forecast

Almanac

Astronomy

Sep. 29, 2016 Rise Set
Actual Time
Civil Twilight
Nautical Twilight
Astronomical Twilight
Moon
Length of Visible Light
Length of Day
Tomorrow will be .
, % of the Moon is Illuminated

Today's Extremes

State Highs State Lows

Community

WunderPhotos

Upload Photos

1,942,652 photos uploaded!

WunderBlog® & News

Nearby

Air Quality

  Air Quality AQ Index Pollutant
Not available.

Snow Depth

Station Depth Elevation

Earthquake Activity

City Distance Mag. Time & Date
Minimum magnitude displayed is 2.5.

Coastal Water Temperatures

Place Temperature

Stations

Nearby Weather Stations

Station Location Temp. Windchill Dew Point Humidity Wind Precip. Elev Updated Type
                   

Watches & Warnings

There are currently no watches in effect.